sensor_id;sensor_type;location;lat;lon;timestamp;pressure;altitude;pressure_sealevel;temperature;humidity
10658;BME280;5377;43.276;26.930;2023-08-31T00:02:01;98302.13;;;23.02;100.00
10658;BME280;5377;43.276;26.930;2023-08-31T00:04:30;98307.47;;;23.08;100.00
10658;BME280;5377;43.276;26.930;2023-08-31T00:06:57;98291.19;;;22.89;100.00
10658;BME280;5377;43.276;26.930;2023-08-31T00:09:24;98314.78;;;22.98;100.00
10658;BME280;5377;43.276;26.930;2023-08-31T00:11:51;98275.09;;;22.73;100.00
10658;BME280;5377;43.276;26.930;2023-08-31T00:14:18;98253.75;;;22.62;100.00
10658;BME280;5377;43.276;26.930;2023-08-31T00:16:45;98273.00;;;22.84;100.00
10658;BME280;5377;43.276;26.930;2023-08-31T00:19:13;98251.63;;;22.59;100.00
10658;BME280;5377;43.276;26.930;2023-08-31T00:21:42;98321.44;;;23.06;100.00
10658;BME280;5377;43.276;26.930;2023-08-31T00:24:08;98316.50;;;23.08;100.00
10658;BME280;5377;43.276;26.930;2023-08-31T00:26:36;98329.94;;;23.05;100.00
10658;BME280;5377;43.276;26.930;2023-08-31T00:29:06;98336.22;;;23.05;100.00
10658;BME280;5377;43.276;26.930;2023-08-31T00:31:34;98341.47;;;23.01;100.00
10658;BME280;5377;43.276;26.930;2023-08-31T00:34:01;98341.47;;;23.01;100.00
10658;BME280;5377;43.276;26.930;2023-08-31T00:36:29;98360.59;;;23.01;100.00
10658;BME280;5377;43.276;26.930;2023-08-31T00:38:57;98340.66;;;22.87;100.00
10658;BME280;5377;43.276;26.930;2023-08-31T00:41:25;98354.63;;;22.99;100.00
10658;BME280;5377;43.276;26.930;2023-08-31T00:43:51;98362.63;;;22.96;100.00
10658;BME280;5377;43.276;26.930;2023-08-31T00:46:18;98364.09;;;22.88;100.00
10658;BME280;5377;43.276;26.930;2023-08-31T00:48:45;98365.97;;;22.93;100.00
10658;BME280;5377;43.276;26.930;2023-08-31T00:51:12;98351.78;;;23.05;100.00
10658;BME280;5377;43.276;26.930;2023-08-31T00:53:40;98355.03;;;23.07;100.00
10658;BME280;5377;43.276;26.930;2023-08-31T00:56:08;98359.69;;;23.06;100.00
10658;BME280;5377;43.276;26.930;2023-08-31T00:58:35;98284.38;;;22.59;100.00
10658;BME280;5377;43.276;26.930;2023-08-31T01:01:06;98366.25;;;23.19;100.00
10658;BME280;5377;43.276;26.930;2023-08-31T01:03:47;98375.47;;;23.23;100.00
10658;BME280;5377;43.276;26.930;2023-08-31T01:09:41;98388.63;;;23.21;100.00
10658;BME280;5377;43.276;26.930;2023-08-31T01:12:16;98394.09;;;23.21;100.00
10658;BME280;5377;43.276;26.930;2023-08-31T01:14:50;98385.38;;;23.19;100.00
10658;BME280;5377;43.276;26.930;2023-08-31T01:17:20;98395.63;;;23.27;100.00
10658;BME280;5377;43.276;26.930;2023-08-31T01:19:50;98390.84;;;23.19;100.00
10658;BME280;5377;43.276;26.930;2023-08-31T01:22:27;98386.59;;;23.13;100.00
10658;BME280;5377;43.276;26.930;2023-08-31T01:24:58;98372.41;;;22.83;100.00
10658;BME280;5377;43.276;26.930;2023-08-31T01:27:29;98387.88;;;22.88;100.00
10658;BME280;5377;43.276;26.930;2023-08-31T01:29:57;98390.41;;;22.84;100.00
10658;BME280;5377;43.276;26.930;2023-08-31T01:32:24;98382.56;;;22.78;100.00
10658;BME280;5377;43.276;26.930;2023-08-31T01:34:51;98379.44;;;22.70;100.00
10658;BME280;5377;43.276;26.930;2023-08-31T01:37:29;98383.06;;;22.66;100.00
10658;BME280;5377;43.276;26.930;2023-08-31T01:40:02;98397.00;;;22.64;100.00
10658;BME280;5377;43.276;26.930;2023-08-31T01:42:33;98402.19;;;22.66;100.00
10658;BME280;5377;43.276;26.930;2023-08-31T01:45:00;98393.78;;;22.62;100.00
10658;BME280;5377;43.276;26.930;2023-08-31T01:47:30;98390.66;;;22.69;100.00
10658;BME280;5377;43.276;26.930;2023-08-31T01:49:57;98383.38;;;22.64;100.00
10658;BME280;5377;43.276;26.930;2023-08-31T01:52:24;98367.44;;;22.53;100.00
10658;BME280;5377;43.276;26.930;2023-08-31T01:54:51;98389.72;;;22.60;100.00
10658;BME280;5377;43.276;26.930;2023-08-31T01:57:20;98396.00;;;22.60;100.00
10658;BME280;5377;43.276;26.930;2023-08-31T01:59:46;98398.72;;;22.60;100.00
10658;BME280;5377;43.276;26.930;2023-08-31T02:02:13;98388.09;;;22.59;100.00
10658;BME280;5377;43.276;26.930;2023-08-31T02:04:42;98389.72;;;22.60;100.00
10658;BME280;5377;43.276;26.930;2023-08-31T02:07:09;98378.00;;;22.59;100.00
10658;BME280;5377;43.276;26.930;2023-08-31T02:09:37;98363.75;;;22.62;100.00
10658;BME280;5377;43.276;26.930;2023-08-31T02:12:04;98368.72;;;22.74;100.00
10658;BME280;5377;43.276;26.930;2023-08-31T02:14:32;98356.19;;;22.73;100.00
10658;BME280;5377;43.276;26.930;2023-08-31T02:17:00;98375.69;;;22.80;100.00
10658;BME280;5377;43.276;26.930;2023-08-31T02:19:27;98379.63;;;22.74;100.00
10658;BME280;5377;43.276;26.930;2023-08-31T02:21:54;98375.19;;;22.78;100.00
10658;BME280;5377;43.276;26.930;2023-08-31T02:24:21;98387.66;;;22.84;100.00
10658;BME280;5377;43.276;26.930;2023-08-31T02:26:48;98354.06;;;22.37;100.00
10658;BME280;5377;43.276;26.930;2023-08-31T02:29:14;98396.75;;;22.47;100.00
10658;BME280;5377;43.276;26.930;2023-08-31T02:31:42;98396.03;;;22.41;100.00
10658;BME280;5377;43.276;26.930;2023-08-31T02:34:10;98408.97;;;22.50;100.00
10658;BME280;5377;43.276;26.930;2023-08-31T02:36:37;98403.78;;;22.34;100.00
10658;BME280;5377;43.276;26.930;2023-08-31T02:39:04;98401.88;;;22.16;100.00
10658;BME280;5377;43.276;26.930;2023-08-31T02:41:31;98409.16;;;22.02;100.00
10658;BME280;5377;43.276;26.930;2023-08-31T02:43:58;98421.63;;;22.08;100.00
10658;BME280;5377;43.276;26.930;2023-08-31T02:46:25;98422.16;;;22.10;100.00
10658;BME280;5377;43.276;26.930;2023-08-31T02:48:53;98428.41;;;22.10;100.00
10658;BME280;5377;43.276;26.930;2023-08-31T02:51:20;98437.78;;;22.04;100.00
10658;BME280;5377;43.276;26.930;2023-08-31T02:53:47;98433.69;;;22.02;100.00
10658;BME280;5377;43.276;26.930;2023-08-31T02:56:14;98436.06;;;21.90;100.00
10658;BME280;5377;43.276;26.930;2023-08-31T02:58:41;98426.59;;;21.82;100.00
10658;BME280;5377;43.276;26.930;2023-08-31T03:01:09;98441.03;;;21.83;100.00
10658;BME280;5377;43.276;26.930;2023-08-31T03:03:37;98445.28;;;21.70;100.00
10658;BME280;5377;43.276;26.930;2023-08-31T03:06:05;98448.53;;;21.72;100.00
10658;BME280;5377;43.276;26.930;2023-08-31T03:08:32;98449.78;;;21.61;100.00
10658;BME280;5377;43.276;26.930;2023-08-31T03:10:59;98449.25;;;21.59;100.00
10658;BME280;5377;43.276;26.930;2023-08-31T03:13:26;98460.03;;;21.69;100.00
10658;BME280;5377;43.276;26.930;2023-08-31T03:15:53;98462.97;;;21.72;100.00
10658;BME280;5377;43.276;26.930;2023-08-31T03:18:21;98379.72;;;21.13;100.00
10658;BME280;5377;43.276;26.930;2023-08-31T03:20:49;98447.22;;;21.45;100.00
10658;BME280;5377;43.276;26.930;2023-08-31T03:23:17;98462.22;;;21.67;100.00
10658;BME280;5377;43.276;26.930;2023-08-31T03:25:44;98468.41;;;21.54;100.00
10658;BME280;5377;43.276;26.930;2023-08-31T03:28:11;98383.31;;;21.09;100.00
10658;BME280;5377;43.276;26.930;2023-08-31T03:30:37;98465.97;;;21.52;100.00
10658;BME280;5377;43.276;26.930;2023-08-31T03:33:04;98466.50;;;21.54;100.00
10658;BME280;5377;43.276;26.930;2023-08-31T03:35:31;98446.34;;;21.50;100.00
10658;BME280;5377;43.276;26.930;2023-08-31T03:37:59;98453.84;;;21.63;100.00
10658;BME280;5377;43.276;26.930;2023-08-31T03:40:27;98460.16;;;21.59;100.00
10658;BME280;5377;43.276;26.930;2023-08-31T03:42:54;98463.13;;;21.62;100.00
10658;BME280;5377;43.276;26.930;2023-08-31T03:45:21;98468.88;;;21.79;100.00
10658;BME280;5377;43.276;26.930;2023-08-31T03:47:48;98459.97;;;21.50;100.00
10658;BME280;5377;43.276;26.930;2023-08-31T03:50:15;98456.69;;;21.53;100.00
10658;BME280;5377;43.276;26.930;2023-08-31T03:52:42;98422.47;;;21.42;100.00
10658;BME280;5377;43.276;26.930;2023-08-31T03:55:09;98475.16;;;21.80;100.00
10658;BME280;5377;43.276;26.930;2023-08-31T03:57:37;98479.97;;;21.88;100.00
10658;BME280;5377;43.276;26.930;2023-08-31T04:00:06;98415.22;;;21.56;100.00
10658;BME280;5377;43.276;26.930;2023-08-31T04:02:34;98437.34;;;21.73;100.00
10658;BME280;5377;43.276;26.930;2023-08-31T04:05:03;98489.13;;;21.97;100.00
10658;BME280;5377;43.276;26.930;2023-08-31T04:07:31;98485.72;;;21.87;100.00
10658;BME280;5377;43.276;26.930;2023-08-31T04:09:58;98472.78;;;21.73;100.00
10658;BME280;5377;43.276;26.930;2023-08-31T04:12:25;98426.41;;;21.31;100.00
10658;BME280;5377;43.276;26.930;2023-08-31T04:14:56;98502.50;;;21.51;100.00
10658;BME280;5377;43.276;26.930;2023-08-31T04:17:22;98503.00;;;21.53;100.00
10658;BME280;5377;43.276;26.930;2023-08-31T04:19:50;98442.66;;;21.12;100.00
10658;BME280;5377;43.276;26.930;2023-08-31T04:22:17;98507.09;;;21.51;100.00
10658;BME280;5377;43.276;26.930;2023-08-31T04:24:43;98509.09;;;21.69;100.00
10658;BME280;5377;43.276;26.930;2023-08-31T04:27:10;98509.84;;;21.74;100.00
10658;BME280;5377;43.276;26.930;2023-08-31T04:29:37;98508.66;;;21.80;100.00
10658;BME280;5377;43.276;26.930;2023-08-31T04:32:05;98497.53;;;21.77;100.00
10658;BME280;5377;43.276;26.930;2023-08-31T04:34:32;98497.19;;;21.84;100.00
10658;BME280;5377;43.276;26.930;2023-08-31T04:36:59;98506.88;;;21.95;100.00
10658;BME280;5377;43.276;26.930;2023-08-31T04:39:26;98506.81;;;22.00;100.00
10658;BME280;5377;43.276;26.930;2023-08-31T04:41:53;98501.06;;;22.01;100.00
10658;BME280;5377;43.276;26.930;2023-08-31T04:44:20;98508.63;;;22.09;100.00
10658;BME280;5377;43.276;26.930;2023-08-31T04:46:47;98504.56;;;22.07;100.00
10658;BME280;5377;43.276;26.930;2023-08-31T04:49:16;98509.44;;;22.10;100.00
10658;BME280;5377;43.276;26.930;2023-08-31T04:51:44;98505.00;;;22.14;100.00
10658;BME280;5377;43.276;26.930;2023-08-31T04:54:11;98520.75;;;22.22;100.00
10658;BME280;5377;43.276;26.930;2023-08-31T04:56:38;98510.28;;;22.29;100.00
10658;BME280;5377;43.276;26.930;2023-08-31T04:59:05;98501.94;;;22.21;100.00
10658;BME280;5377;43.276;26.930;2023-08-31T05:01:32;98507.38;;;22.39;100.00
10658;BME280;5377;43.276;26.930;2023-08-31T05:03:59;98508.72;;;22.42;100.00
10658;BME280;5377;43.276;26.930;2023-08-31T05:06:27;98501.25;;;22.48;100.00
10658;BME280;5377;43.276;26.930;2023-08-31T05:08:54;98510.50;;;22.33;100.00
10658;BME280;5377;43.276;26.930;2023-08-31T05:11:22;98511.31;;;22.33;100.00
10658;BME280;5377;43.276;26.930;2023-08-31T05:13:49;98513.19;;;22.14;100.00
10658;BME280;5377;43.276;26.930;2023-08-31T05:16:15;98521.97;;;22.11;100.00
10658;BME280;5377;43.276;26.930;2023-08-31T05:18:42;98512.56;;;22.22;100.00
10658;BME280;5377;43.276;26.930;2023-08-31T05:21:09;98510.94;;;22.21;100.00
10658;BME280;5377;43.276;26.930;2023-08-31T05:23:37;98519.47;;;22.33;100.00
10658;BME280;5377;43.276;26.930;2023-08-31T05:26:04;98513.38;;;22.23;100.00
10658;BME280;5377;43.276;26.930;2023-08-31T05:28:31;98527.16;;;22.31;100.00
10658;BME280;5377;43.276;26.930;2023-08-31T05:31:01;98526.72;;;22.43;100.00
10658;BME280;5377;43.276;26.930;2023-08-31T05:33:28;98532.09;;;22.48;100.00
10658;BME280;5377;43.276;26.930;2023-08-31T05:36:00;98535.81;;;22.57;100.00
10658;BME280;5377;43.276;26.930;2023-08-31T05:38:29;98531.94;;;22.77;100.00
10658;BME280;5377;43.276;26.930;2023-08-31T05:41:05;98533.38;;;22.93;100.00
10658;BME280;5377;43.276;26.930;2023-08-31T05:43:33;98521.31;;;22.76;100.00
10658;BME280;5377;43.276;26.930;2023-08-31T05:46:00;98522.56;;;23.02;100.00
10658;BME280;5377;43.276;26.930;2023-08-31T05:48:26;98529.00;;;22.92;100.00
10658;BME280;5377;43.276;26.930;2023-08-31T05:50:53;98502.25;;;22.89;100.00
10658;BME280;5377;43.276;26.930;2023-08-31T05:53:20;98528.66;;;23.13;100.00
10658;BME280;5377;43.276;26.930;2023-08-31T05:55:47;98539.47;;;23.04;100.00
10658;BME280;5377;43.276;26.930;2023-08-31T05:58:15;98539.03;;;23.29;100.00
10658;BME280;5377;43.276;26.930;2023-08-31T06:00:42;98539.34;;;23.42;100.00
10658;BME280;5377;43.276;26.930;2023-08-31T06:03:09;98541.16;;;23.65;100.00
10658;BME280;5377;43.276;26.930;2023-08-31T06:05:36;98541.53;;;23.86;100.00
10658;BME280;5377;43.276;26.930;2023-08-31T06:08:04;98544.06;;;24.10;100.00
10658;BME280;5377;43.276;26.930;2023-08-31T06:10:31;98533.44;;;24.36;100.00
10658;BME280;5377;43.276;26.930;2023-08-31T06:12:58;98510.03;;;24.66;100.00
10658;BME280;5377;43.276;26.930;2023-08-31T06:15:26;98526.50;;;25.10;100.00
10658;BME280;5377;43.276;26.930;2023-08-31T06:17:53;98522.31;;;25.35;100.00
10658;BME280;5377;43.276;26.930;2023-08-31T06:20:20;98514.34;;;25.65;100.00
10658;BME280;5377;43.276;26.930;2023-08-31T06:22:47;98508.50;;;25.89;100.00
10658;BME280;5377;43.276;26.930;2023-08-31T06:25:14;98493.41;;;26.08;100.00
10658;BME280;5377;43.276;26.930;2023-08-31T06:27:44;98499.38;;;26.19;100.00
10658;BME280;5377;43.276;26.930;2023-08-31T06:30:11;98477.25;;;26.24;100.00
10658;BME280;5377;43.276;26.930;2023-08-31T06:32:42;98474.53;;;26.33;100.00
10658;BME280;5377;43.276;26.930;2023-08-31T06:35:10;98481.84;;;26.55;100.00
10658;BME280;5377;43.276;26.930;2023-08-31T06:37:37;98477.47;;;26.62;100.00
10658;BME280;5377;43.276;26.930;2023-08-31T06:40:05;98498.59;;;26.96;100.00
10658;BME280;5377;43.276;26.930;2023-08-31T06:42:33;98496.66;;;26.97;100.00
10658;BME280;5377;43.276;26.930;2023-08-31T06:45:00;98488.94;;;26.99;100.00
10658;BME280;5377;43.276;26.930;2023-08-31T06:47:27;98500.25;;;26.80;100.00
10658;BME280;5377;43.276;26.930;2023-08-31T06:49:55;98502.53;;;26.52;100.00
10658;BME280;5377;43.276;26.930;2023-08-31T06:52:23;98511.56;;;26.44;100.00
10658;BME280;5377;43.276;26.930;2023-08-31T06:54:50;98504.56;;;26.29;100.00
10658;BME280;5377;43.276;26.930;2023-08-31T06:57:20;98510.13;;;26.38;100.00
10658;BME280;5377;43.276;26.930;2023-08-31T06:59:47;98500.09;;;26.42;100.00
10658;BME280;5377;43.276;26.930;2023-08-31T07:02:14;98489.28;;;26.54;100.00
10658;BME280;5377;43.276;26.930;2023-08-31T07:04:41;98491.34;;;26.83;100.00
10658;BME280;5377;43.276;26.930;2023-08-31T07:07:10;98503.78;;;26.89;100.00
10658;BME280;5377;43.276;26.930;2023-08-31T07:09:38;98494.72;;;26.97;100.00
10658;BME280;5377;43.276;26.930;2023-08-31T07:12:06;98495.00;;;27.30;100.00
10658;BME280;5377;43.276;26.930;2023-08-31T07:14:32;98481.69;;;27.50;100.00
10658;BME280;5377;43.276;26.930;2023-08-31T07:16:59;98486.06;;;27.51;100.00
10658;BME280;5377;43.276;26.930;2023-08-31T07:19:26;98490.69;;;27.59;100.00
10658;BME280;5377;43.276;26.930;2023-08-31T07:21:53;98497.84;;;27.51;100.00
10658;BME280;5377;43.276;26.930;2023-08-31T07:24:22;98500.09;;;27.67;100.00
10658;BME280;5377;43.276;26.930;2023-08-31T07:26:50;98512.19;;;27.74;100.00
10658;BME280;5377;43.276;26.930;2023-08-31T07:29:17;98512.03;;;27.79;100.00
10658;BME280;5377;43.276;26.930;2023-08-31T07:31:44;98511.53;;;28.07;100.00
10658;BME280;5377;43.276;26.930;2023-08-31T07:34:10;98501.19;;;28.33;100.00
10658;BME280;5377;43.276;26.930;2023-08-31T07:36:37;98503.72;;;28.47;97.42
10658;BME280;5377;43.276;26.930;2023-08-31T07:39:03;98502.53;;;28.69;96.66
10658;BME280;5377;43.276;26.930;2023-08-31T07:41:31;98502.06;;;28.67;93.55
10658;BME280;5377;43.276;26.930;2023-08-31T07:43:58;98497.44;;;28.58;96.27
10658;BME280;5377;43.276;26.930;2023-08-31T07:46:25;98514.19;;;28.95;92.82
10658;BME280;5377;43.276;26.930;2023-08-31T07:48:52;98507.63;;;29.33;90.16
10658;BME280;5377;43.276;26.930;2023-08-31T07:51:18;98517.81;;;29.53;88.30
10658;BME280;5377;43.276;26.930;2023-08-31T07:53:48;98465.75;;;29.52;85.74
10658;BME280;5377;43.276;26.930;2023-08-31T07:56:15;98506.22;;;30.33;79.70
10658;BME280;5377;43.276;26.930;2023-08-31T07:58:44;98511.97;;;31.08;74.13
10658;BME280;5377;43.276;26.930;2023-08-31T08:01:11;98501.56;;;31.61;65.95
10658;BME280;5377;43.276;26.930;2023-08-31T08:03:37;98500.59;;;31.85;64.54
10658;BME280;5377;43.276;26.930;2023-08-31T08:06:04;98496.13;;;32.66;63.01
10658;BME280;5377;43.276;26.930;2023-08-31T08:08:31;98494.66;;;33.11;58.95
10658;BME280;5377;43.276;26.930;2023-08-31T08:10:58;98504.66;;;33.35;56.85
10658;BME280;5377;43.276;26.930;2023-08-31T08:13:25;98501.44;;;33.13;55.76
10658;BME280;5377;43.276;26.930;2023-08-31T08:15:53;98501.88;;;33.35;55.08
10658;BME280;5377;43.276;26.930;2023-08-31T08:18:20;98498.72;;;33.59;54.59
10658;BME280;5377;43.276;26.930;2023-08-31T08:20:47;98512.44;;;33.71;54.03
10658;BME280;5377;43.276;26.930;2023-08-31T08:23:14;98515.13;;;34.14;52.00
10658;BME280;5377;43.276;26.930;2023-08-31T08:25:41;98508.59;;;34.29;51.58
10658;BME280;5377;43.276;26.930;2023-08-31T08:28:08;98510.06;;;34.46;52.50
10658;BME280;5377;43.276;26.930;2023-08-31T08:30:35;98496.53;;;35.04;50.64
10658;BME280;5377;43.276;26.930;2023-08-31T08:33:04;98497.31;;;35.05;50.11
10658;BME280;5377;43.276;26.930;2023-08-31T08:35:30;98505.91;;;34.92;49.70
10658;BME280;5377;43.276;26.930;2023-08-31T08:37:57;98504.31;;;34.91;50.59
10658;BME280;5377;43.276;26.930;2023-08-31T08:40:25;98512.56;;;35.18;50.43
10658;BME280;5377;43.276;26.930;2023-08-31T08:42:53;98516.94;;;35.52;50.08
10658;BME280;5377;43.276;26.930;2023-08-31T08:45:20;98509.47;;;36.11;48.72
10658;BME280;5377;43.276;26.930;2023-08-31T08:47:51;98515.44;;;36.10;48.00
10658;BME280;5377;43.276;26.930;2023-08-31T08:50:20;98519.72;;;36.51;46.55
10658;BME280;5377;43.276;26.930;2023-08-31T08:52:49;98518.97;;;36.07;47.57
10658;BME280;5377;43.276;26.930;2023-08-31T08:55:16;98532.44;;;35.53;49.96
10658;BME280;5377;43.276;26.930;2023-08-31T08:57:44;98524.47;;;35.92;48.96
10658;BME280;5377;43.276;26.930;2023-08-31T09:00:11;98526.13;;;35.56;48.65
10658;BME280;5377;43.276;26.930;2023-08-31T09:02:38;98533.41;;;35.72;48.42
10658;BME280;5377;43.276;26.930;2023-08-31T09:05:06;98526.63;;;35.69;48.37
10658;BME280;5377;43.276;26.930;2023-08-31T09:07:35;98541.63;;;35.98;48.22
10658;BME280;5377;43.276;26.930;2023-08-31T09:10:04;98537.44;;;35.74;47.34
10658;BME280;5377;43.276;26.930;2023-08-31T09:12:32;98537.50;;;35.41;47.67
10658;BME280;5377;43.276;26.930;2023-08-31T09:15:04;98538.53;;;35.66;46.28
10658;BME280;5377;43.276;26.930;2023-08-31T09:17:38;98526.53;;;36.03;45.13
10658;BME280;5377;43.276;26.930;2023-08-31T09:20:06;98532.06;;;36.47;42.87
10658;BME280;5377;43.276;26.930;2023-08-31T09:22:36;98538.72;;;36.35;42.88
10658;BME280;5377;43.276;26.930;2023-08-31T09:25:03;98530.63;;;36.16;45.28
10658;BME280;5377;43.276;26.930;2023-08-31T09:27:30;98541.25;;;36.51;44.74
10658;BME280;5377;43.276;26.930;2023-08-31T09:29:58;98539.69;;;36.64;44.45
10658;BME280;5377;43.276;26.930;2023-08-31T09:32:28;98544.50;;;36.64;43.82
10658;BME280;5377;43.276;26.930;2023-08-31T09:34:55;98542.63;;;36.85;43.96
10658;BME280;5377;43.276;26.930;2023-08-31T09:37:22;98537.91;;;37.04;43.34
10658;BME280;5377;43.276;26.930;2023-08-31T09:39:50;98529.09;;;36.91;43.00
10658;BME280;5377;43.276;26.930;2023-08-31T09:42:18;98543.06;;;36.98;42.94
10658;BME280;5377;43.276;26.930;2023-08-31T09:44:45;98499.69;;;36.35;42.56
10658;BME280;5377;43.276;26.930;2023-08-31T09:47:17;98531.06;;;35.74;45.13
10658;BME280;5377;43.276;26.930;2023-08-31T09:49:46;98532.53;;;35.60;46.13
10658;BME280;5377;43.276;26.930;2023-08-31T09:52:13;98537.66;;;35.55;46.65
10658;BME280;5377;43.276;26.930;2023-08-31T09:54:42;98519.13;;;36.28;44.28
10658;BME280;5377;43.276;26.930;2023-08-31T09:57:12;98512.53;;;35.96;44.23
10658;BME280;5377;43.276;26.930;2023-08-31T09:59:41;98529.06;;;35.33;45.77
10658;BME280;5377;43.276;26.930;2023-08-31T10:02:11;98528.19;;;35.29;46.77
10658;BME280;5377;43.276;26.930;2023-08-31T10:04:40;98531.06;;;35.37;46.42
10658;BME280;5377;43.276;26.930;2023-08-31T10:07:08;98529.78;;;35.30;45.26
10658;BME280;5377;43.276;26.930;2023-08-31T10:09:39;98538.94;;;34.94;45.08
10658;BME280;5377;43.276;26.930;2023-08-31T10:12:07;98546.75;;;34.32;45.08
10658;BME280;5377;43.276;26.930;2023-08-31T10:14:36;98545.78;;;33.71;47.19
10658;BME280;5377;43.276;26.930;2023-08-31T10:17:04;98552.31;;;34.32;45.02
10658;BME280;5377;43.276;26.930;2023-08-31T10:19:31;98550.41;;;34.62;44.90
10658;BME280;5377;43.276;26.930;2023-08-31T10:21:58;98555.09;;;34.55;43.54
10658;BME280;5377;43.276;26.930;2023-08-31T10:24:56;98570.94;;;34.01;44.93
10658;BME280;5377;43.276;26.930;2023-08-31T10:27:23;98558.59;;;34.25;45.50
10658;BME280;5377;43.276;26.930;2023-08-31T10:29:52;98553.50;;;34.04;46.19
10658;BME280;5377;43.276;26.930;2023-08-31T10:32:18;98549.66;;;34.13;45.97
10658;BME280;5377;43.276;26.930;2023-08-31T10:35:05;98552.31;;;34.32;45.18
10658;BME280;5377;43.276;26.930;2023-08-31T10:37:32;98551.63;;;34.65;44.66
10658;BME280;5377;43.276;26.930;2023-08-31T10:40:09;98553.72;;;34.42;45.60
10658;BME280;5377;43.276;26.930;2023-08-31T10:42:44;98548.25;;;33.99;45.99
10658;BME280;5377;43.276;26.930;2023-08-31T10:45:14;98540.41;;;34.31;45.41
10658;BME280;5377;43.276;26.930;2023-08-31T10:47:41;98547.00;;;34.72;44.97
10658;BME280;5377;43.276;26.930;2023-08-31T10:50:19;98544.31;;;35.43;42.95
10658;BME280;5377;43.276;26.930;2023-08-31T10:52:45;98552.69;;;35.13;41.35
10658;BME280;5377;43.276;26.930;2023-08-31T10:55:12;98549.59;;;35.22;40.68
10658;BME280;5377;43.276;26.930;2023-08-31T10:57:40;98547.69;;;35.67;40.36
10658;BME280;5377;43.276;26.930;2023-08-31T11:00:08;98563.19;;;36.05;39.98
10658;BME280;5377;43.276;26.930;2023-08-31T11:02:38;98554.38;;;35.99;39.22
10658;BME280;5377;43.276;26.930;2023-08-31T11:05:09;98544.97;;;36.18;38.88
10658;BME280;5377;43.276;26.930;2023-08-31T11:07:37;98550.19;;;35.75;39.92
10658;BME280;5377;43.276;26.930;2023-08-31T11:10:11;98558.69;;;35.89;39.54
10658;BME280;5377;43.276;26.930;2023-08-31T11:12:38;98548.31;;;36.38;38.43
10658;BME280;5377;43.276;26.930;2023-08-31T11:15:06;98540.50;;;36.65;38.17
10658;BME280;5377;43.276;26.930;2023-08-31T11:17:33;98547.59;;;37.35;38.09
10658;BME280;5377;43.276;26.930;2023-08-31T11:20:01;98542.56;;;38.19;36.13
10658;BME280;5377;43.276;26.930;2023-08-31T11:22:30;98536.81;;;38.79;35.07
10658;BME280;5377;43.276;26.930;2023-08-31T11:24:58;98540.00;;;38.81;33.78
10658;BME280;5377;43.276;26.930;2023-08-31T11:27:25;98534.25;;;39.24;33.49
10658;BME280;5377;43.276;26.930;2023-08-31T11:29:52;98532.56;;;39.37;32.37
10658;BME280;5377;43.276;26.930;2023-08-31T11:32:19;98540.81;;;38.78;33.19
10658;BME280;5377;43.276;26.930;2023-08-31T11:34:50;98543.63;;;37.36;35.63
10658;BME280;5377;43.276;26.930;2023-08-31T11:37:19;98525.44;;;36.14;37.02
10658;BME280;5377;43.276;26.930;2023-08-31T11:39:49;98540.72;;;35.43;38.91
10658;BME280;5377;43.276;26.930;2023-08-31T11:42:19;98541.03;;;35.38;39.50
10658;BME280;5377;43.276;26.930;2023-08-31T11:44:47;98524.50;;;35.96;38.39
10658;BME280;5377;43.276;26.930;2023-08-31T11:47:16;98530.88;;;36.48;37.13
10658;BME280;5377;43.276;26.930;2023-08-31T11:49:44;98515.16;;;36.98;36.54
10658;BME280;5377;43.276;26.930;2023-08-31T11:52:13;98533.69;;;37.49;35.32
10658;BME280;5377;43.276;26.930;2023-08-31T11:54:42;98532.09;;;37.69;35.84
10658;BME280;5377;43.276;26.930;2023-08-31T11:57:09;98533.31;;;38.11;34.63
10658;BME280;5377;43.276;26.930;2023-08-31T11:59:37;98530.06;;;38.66;34.26
10658;BME280;5377;43.276;26.930;2023-08-31T12:02:06;98528.63;;;39.27;33.59
10658;BME280;5377;43.276;26.930;2023-08-31T12:04:33;98513.97;;;39.65;32.32
10658;BME280;5377;43.276;26.930;2023-08-31T12:07:08;98522.91;;;39.42;32.30
10658;BME280;5377;43.276;26.930;2023-08-31T12:09:35;98517.22;;;39.59;32.25
10658;BME280;5377;43.276;26.930;2023-08-31T12:12:04;98506.41;;;39.62;32.59
10658;BME280;5377;43.276;26.930;2023-08-31T12:14:31;98518.41;;;40.10;30.57
10658;BME280;5377;43.276;26.930;2023-08-31T12:17:02;98515.41;;;40.32;30.10
10658;BME280;5377;43.276;26.930;2023-08-31T12:19:30;98512.56;;;39.87;29.84
10658;BME280;5377;43.276;26.930;2023-08-31T12:21:58;98490.16;;;40.32;29.99
10658;BME280;5377;43.276;26.930;2023-08-31T12:24:25;98493.06;;;40.59;30.16
10658;BME280;5377;43.276;26.930;2023-08-31T12:26:52;98510.88;;;40.45;29.92
10658;BME280;5377;43.276;26.930;2023-08-31T12:29:22;98517.38;;;39.31;30.90
10658;BME280;5377;43.276;26.930;2023-08-31T12:31:49;98503.38;;;37.97;32.57
10658;BME280;5377;43.276;26.930;2023-08-31T12:34:17;98520.13;;;37.65;33.52
10658;BME280;5377;43.276;26.930;2023-08-31T12:36:43;98523.34;;;37.85;33.36
10658;BME280;5377;43.276;26.930;2023-08-31T12:39:10;98523.75;;;37.73;33.40
10658;BME280;5377;43.276;26.930;2023-08-31T12:41:38;98525.66;;;37.44;33.68
10658;BME280;5377;43.276;26.930;2023-08-31T12:44:05;98523.53;;;36.95;34.49
10658;BME280;5377;43.276;26.930;2023-08-31T12:46:33;98522.25;;;36.16;35.42
10658;BME280;5377;43.276;26.930;2023-08-31T12:49:01;98528.69;;;35.35;37.44
10658;BME280;5377;43.276;26.930;2023-08-31T12:51:29;98530.59;;;34.67;38.55
10658;BME280;5377;43.276;26.930;2023-08-31T12:53:56;98531.00;;;34.13;39.67
10658;BME280;5377;43.276;26.930;2023-08-31T12:56:23;98527.69;;;33.81;40.48
10658;BME280;5377;43.276;26.930;2023-08-31T12:58:51;98529.75;;;34.63;39.47
10658;BME280;5377;43.276;26.930;2023-08-31T13:01:19;98514.59;;;35.21;38.73
10658;BME280;5377;43.276;26.930;2023-08-31T13:03:47;98516.72;;;35.35;38.10